^^
Meteo Knjazevac Station Historical Data
Daily Summary for March 25, 2021 Units:  Metric    English   Both
Daily Weekly Monthly Yearly Custom
  High: Low: Average:
Temperature: 13.4 °C -2.2 °C 3.9 °C
Dew Point: 7.7 °C -3.1 °C 2 °C
Humidity: 99% 68% 88%
Wind Speed: 9.7km/h 0km/h 2.6km/h
Wind Gust: 16.1km/h - -
Wind- - SW
Pressure: 1032.7 hPa 1027.7 hPa -
Precipitation: 0 mm    
Historical Graphs
 
 
Tabular Data for March 25, 2021
Time Temperature Dew Point Pressure Wind Wind Speed Wind Gust Humidity Rainfall Rate (Hourly) solar Conditions
00:00 1.1 °C -0.3 °C 1031.7 hPa West 3.2 km/h 8 km/h 90% 0 mm 0 W/m2
00:10 0.9 °C -0.6 °C 1031.7 hPa West 1.6 km/h 4.8 km/h 90% 0 mm 0 W/m2
00:20 0.8 °C -0.7 °C 1031.7 hPa WNW 1.6 km/h 3.2 km/h 90% 0 mm 0 W/m2
00:30 0.7 °C -0.8 °C 1031.7 hPa WNW 1.6 km/h 3.2 km/h 90% 0 mm 0 W/m2
00:40 0.6 °C -0.8 °C 1031.7 hPa Calm   4.8 km/h 90% 0 mm 0 W/m2
00:50 0.4 °C -1.1 °C 1031.7 hPa NW 1.6 km/h 4.8 km/h 90% 0 mm 0 W/m2
01:00 0.2 °C -1.2 °C 1031.7 hPa WNW 1.6 km/h 4.8 km/h 90% 0 mm 0 W/m2
01:10 0.1 °C -1.2 °C 1031.7 hPa WNW 3.2 km/h 6.4 km/h 91% 0 mm 0 W/m2
01:20 0.1 °C -0.9 °C 1031.7 hPa West 1.6 km/h 6.4 km/h 93% 0 mm 0 W/m2
01:30 -0.1 °C -1.2 °C 1031.7 hPa West 3.2 km/h 4.8 km/h 92% 0 mm 0 W/m2
01:40 -0.2 °C -1.2 °C 1031.7 hPa West 3.2 km/h 6.4 km/h 93% 0 mm 0 W/m2
01:50 -0.2 °C -1.1 °C 1031.7 hPa WNW 3.2 km/h 6.4 km/h 94% 0 mm 0 W/m2
02:00 -0.3 °C -1.3 °C 1031.7 hPa WNW 1.6 km/h 3.2 km/h 93% 0 mm 0 W/m2
02:10 -0.4 °C -1.4 °C 1031.7 hPa West 3.2 km/h 4.8 km/h 93% 0 mm 0 W/m2
02:20 -0.3 °C -1.2 °C 1031.7 hPa WNW 1.6 km/h 4.8 km/h 94% 0 mm 0 W/m2
02:30 -0.3 °C -1 °C 1031.4 hPa Calm   4.8 km/h 95% 0 mm 0 W/m2
02:40 -0.5 °C -1.5 °C 1031.4 hPa West 3.2 km/h 4.8 km/h 93% 0 mm 0 W/m2
02:50 -0.6 °C -1.6 °C 1031.7 hPa Calm   4.8 km/h 93% 0 mm 0 W/m2
03:00 -0.7 °C -1.5 °C 1031.7 hPa Calm   3.2 km/h 94% 0 mm 0 W/m2
03:10 -0.8 °C -1.8 °C 1031.7 hPa WNW 1.6 km/h 3.2 km/h 93% 0 mm 0 W/m2
03:20 -0.9 °C -1.9 °C 1031.7 hPa West 1.6 km/h 3.2 km/h 93% 0 mm 0 W/m2
03:30 -1 °C -2 °C 1031.7 hPa Calm   3.2 km/h 93% 0 mm 0 W/m2
03:40 -1.1 °C -1.9 °C 1031.4 hPa NNW 3.2 km/h 3.2 km/h 94% 0 mm 0 W/m2
03:50 -1.1 °C -1.9 °C 1031.7 hPa NNW 1.6 km/h 3.2 km/h 94% 0 mm 0 W/m2
04:00 -1.1 °C -1.9 °C 1031.7 hPa Calm   4.8 km/h 94% 0 mm 0 W/m2
04:10 -1.2 °C -2.1 °C 1031.4 hPa NW 1.6 km/h 3.2 km/h 94% 0 mm 0 W/m2
04:20 -1.2 °C -2.1 °C 1031.4 hPa NNW 1.6 km/h 3.2 km/h 94% 0 mm 0 W/m2
04:30 -1.3 °C -2.2 °C 1031.4 hPa WNW 3.2 km/h 4.8 km/h 94% 0 mm 0 W/m2
04:40 -1.4 °C -2.2 °C 1031.7 hPa Calm   4.8 km/h 94% 0 mm 0 W/m2
04:50 -1.4 °C -2.2 °C 1031.7 hPa Calm   3.2 km/h 94% 0 mm 0 W/m2
05:00 -1.5 °C -2.3 °C 1031.7 hPa NW 1.6 km/h 3.2 km/h 94% 0 mm 0 W/m2
05:10 -1.6 °C -2.4 °C 1031.7 hPa Calm   3.2 km/h 94% 0 mm 0 W/m2
05:20 -1.7 °C -2.6 °C 1031.7 hPa Calm   3.2 km/h 94% 0 mm 0 W/m2
05:30 -1.7 °C -2.6 °C 1031.4 hPa WNW 3.2 km/h 4.8 km/h 94% 0 mm 0 W/m2
05:40 -1.7 °C -2.4 °C 1031.7 hPa WNW 4.8 km/h 6.4 km/h 95% 0 mm 0 W/m2
05:50 -1.7 °C -2.4 °C 1031.7 hPa Calm   4.8 km/h 95% 0 mm 0 W/m2
06:00 -1.7 °C -2.4 °C 1031.7 hPa Calm   1.6 km/h 95% 0 mm 0 W/m2
06:10 -1.8 °C -2.5 °C 1031.7 hPa Calm     95% 0 mm 0 W/m2
06:20 -1.8 °C -2.6 °C 1031.7 hPa North 1.6 km/h 4.8 km/h 94% 0 mm 0 W/m2
06:30 -1.9 °C -2.7 °C 1031.7 hPa Calm   4.8 km/h 94% 0 mm 0 W/m2
06:40 -2 °C -2.8 °C 1031.7 hPa Calm   3.2 km/h 94% 0 mm 0 W/m2
06:50 -2 °C -2.8 °C 1031.7 hPa NW 1.6 km/h 3.2 km/h 94% 0 mm 0 W/m2
07:00 -2.2 °C -3 °C 1031.7 hPa WNW 3.2 km/h 3.2 km/h 94% 0 mm 5 W/m2
07:10 -2.2 °C -2.9 °C 1031.7 hPa NW 3.2 km/h 4.8 km/h 95% 0 mm 11 W/m2
07:20 -2.2 °C -3.1 °C 1031.7 hPa NNW 1.6 km/h 3.2 km/h 94% 0 mm 22 W/m2
07:30 -2.2 °C -2.9 °C 1032.1 hPa North 1.6 km/h 3.2 km/h 95% 0 mm 38 W/m2
07:40 -2.2 °C -2.9 °C 1032.1 hPa Calm   1.6 km/h 95% 0 mm 56 W/m2
07:50 -2.2 °C -2.9 °C 1032.1 hPa Calm   3.2 km/h 95% 0 mm 74 W/m2
08:00 -2.2 °C -2.9 °C 1032.1 hPa Calm   1.6 km/h 95% 0 mm 98 W/m2
08:10 -2 °C -2.7 °C 1032.1 hPa Calm   1.6 km/h 95% 0 mm 118 W/m2
08:20 -1.6 °C -2.2 °C 1032.4 hPa WNW 1.6 km/h 3.2 km/h 96% 0 mm 166 W/m2
08:30 -1 °C -1.3 °C 1032.4 hPa WNW 1.6 km/h 3.2 km/h 98% 0 mm 145 W/m2
08:40 -0.5 °C -0.8 °C 1032.4 hPa WSW 1.6 km/h 3.2 km/h 98% 0 mm 87 W/m2
08:50 -0.2 °C -0.5 °C 1032.4 hPa West 1.6 km/h 4.8 km/h 98% 0 mm 91 W/m2
09:00 0.1 °C -0.2 °C 1032.7 hPa West 1.6 km/h 6.4 km/h 98% 0 mm 98 W/m2
09:10 0.4 °C 0.1 °C 1032.4 hPa WNW 3.2 km/h 4.8 km/h 98% 0 mm 105 W/m2
09:20 0.7 °C 0.4 °C 1032.4 hPa NW 1.6 km/h 4.8 km/h 98% 0 mm 112 W/m2
09:30 1.1 °C 0.8 °C 1032.4 hPa Calm   4.8 km/h 98% 0 mm 115 W/m2
09:40 1.4 °C 1.3 °C 1032.4 hPa WNW 1.6 km/h 4.8 km/h 99% 0 mm 127 W/m2
09:50 1.7 °C 1.6 °C 1032.4 hPa Calm   4.8 km/h 99% 0 mm 128 W/m2
10:00 2.1 °C 1.9 °C 1032.4 hPa Calm   4.8 km/h 99% 0 mm 133 W/m2
10:10 2.4 °C 2.3 °C 1032.4 hPa Calm   3.2 km/h 99% 0 mm 120 W/m2
10:20 2.7 °C 2.6 °C 1032.4 hPa North 1.6 km/h 6.4 km/h 99% 0 mm 156 W/m2
10:30 3.1 °C 2.9 °C 1032.4 hPa NNE 3.2 km/h 9.7 km/h 99% 0 mm 166 W/m2
10:40 3.4 °C 3.3 °C 1032.4 hPa NNE 4.8 km/h 9.7 km/h 99% 0 mm 149 W/m2
10:50 3.6 °C 3.3 °C 1032.1 hPa NNE 4.8 km/h 9.7 km/h 98% 0 mm 143 W/m2
11:00 3.8 °C 3.5 °C 1032.1 hPa NNE 8 km/h 11.3 km/h 98% 0 mm 170 W/m2
11:10 4 °C 3.7 °C 1032.1 hPa NNE 1.6 km/h 12.9 km/h 98% 0 mm 147 W/m2
11:20 4.3 °C 3.7 °C 1032.1 hPa NNE 8 km/h 12.9 km/h 96% 0 mm 170 W/m2
11:30 4.5 °C 3.9 °C 1032.1 hPa NNE 4.8 km/h 12.9 km/h 96% 0 mm 149 W/m2
11:40 4.7 °C 4.1 °C 1032.1 hPa NNE 8 km/h 11.3 km/h 96% 0 mm 149 W/m2
11:50 4.9 °C 4.2 °C 1031.7 hPa North 4.8 km/h 12.9 km/h 95% 0 mm 167 W/m2
12:00 5.1 °C 4.4 °C 1031.7 hPa North 9.7 km/h 14.5 km/h 95% 0 mm 161 W/m2
12:10 5.4 °C 4.7 °C 1031.7 hPa North 3.2 km/h 14.5 km/h 95% 0 mm 163 W/m2
12:20 5.5 °C 4.6 °C 1031.4 hPa North 8 km/h 12.9 km/h 94% 0 mm 180 W/m2
12:30 5.7 °C 4.8 °C 1031.4 hPa NNE 3.2 km/h 12.9 km/h 94% 0 mm 233 W/m2
12:40 6.1 °C 5.2 °C 1031 hPa North 3.2 km/h 8 km/h 94% 0 mm 252 W/m2
12:50 6.5 °C 5.4 °C 1031 hPa North 4.8 km/h 9.7 km/h 93% 0 mm 411 W/m2
13:00 7.2 °C 5.8 °C 1030.7 hPa NNW 1.6 km/h 9.7 km/h 91% 0 mm 513 W/m2
13:10 8.1 °C 6.6 °C 1030.7 hPa NNW 4.8 km/h 12.9 km/h 90% 0 mm 505 W/m2
13:20 8.7 °C 6.8 °C 1030.4 hPa SW 4.8 km/h 11.3 km/h 88% 0 mm 496 W/m2
13:30 9.1 °C 6.7 °C 1030.4 hPa WSW 4.8 km/h 9.7 km/h 85% 0 mm 485 W/m2
13:40 9.4 °C 6.8 °C 1030 hPa SW 3.2 km/h 9.7 km/h 84% 0 mm 472 W/m2
13:50 9.8 °C 7.1 °C 1030 hPa SW 4.8 km/h 9.7 km/h 83% 0 mm 458 W/m2
14:00 10.2 °C 7.4 °C 1029.7 hPa SW 4.8 km/h 9.7 km/h 83% 0 mm 443 W/m2
14:10 10.5 °C 7.2 °C 1029.7 hPa SW 4.8 km/h 11.3 km/h 80% 0 mm 426 W/m2
14:20 10.7 °C 7.2 °C 1029.3 hPa WSW 3.2 km/h 11.3 km/h 79% 0 mm 408 W/m2
14:30 11 °C 7.5 °C 1029.3 hPa WSW 4.8 km/h 9.7 km/h 79% 0 mm 389 W/m2
14:40 11.4 °C 7.7 °C 1029 hPa WSW 4.8 km/h 9.7 km/h 78% 0 mm 369 W/m2
14:50 11.8 °C 7.5 °C 1029 hPa SW 4.8 km/h 8 km/h 75% 0 mm 348 W/m2
15:00 12.2 °C 7.5 °C 1028.7 hPa WNW 3.2 km/h 8 km/h 73% 0 mm 326 W/m2
15:10 12.6 °C 7.7 °C 1028.7 hPa NNW 1.6 km/h 9.7 km/h 72% 0 mm 303 W/m2
15:20 12.9 °C 7.6 °C 1028.3 hPa North 4.8 km/h 11.3 km/h 70% 0 mm 279 W/m2
15:30 13.1 °C 7.3 °C 1028.3 hPa NNW 4.8 km/h 12.9 km/h 68% 0 mm 255 W/m2
15:40 13.3 °C 7.5 °C 1028.3 hPa NNW 4.8 km/h 11.3 km/h 68% 0 mm 230 W/m2
15:50 13.3 °C 7.5 °C 1028.3 hPa NNW 8 km/h 11.3 km/h 68% 0 mm 205 W/m2
16:00 13.3 °C 7.5 °C 1028 hPa NNW 1.6 km/h 11.3 km/h 68% 0 mm 180 W/m2
16:10 13.4 °C 7.6 °C 1028 hPa NW 1.6 km/h 11.3 km/h 68% 0 mm 153 W/m2
16:20 13.4 °C 7.6 °C 1028 hPa NNE 4.8 km/h 14.5 km/h 68% 0 mm 128 W/m2
16:30 13.4 °C 7.6 °C 1028 hPa North 3.2 km/h 11.3 km/h 68% 0 mm 99 W/m2
16:40 13.2 °C 7.4 °C 1028 hPa NNW 1.6 km/h 9.7 km/h 68% 0 mm 77 W/m2
16:50 13 °C 7.2 °C 1028 hPa North 1.6 km/h 9.7 km/h 68% 0 mm 57 W/m2
17:00 12.8 °C 7.1 °C 1028 hPa North 8 km/h 16.1 km/h 68% 0 mm 38 W/m2
17:10 12.5 °C 6.8 °C 1028 hPa NNE 1.6 km/h 16.1 km/h 68% 0 mm 20 W/m2
17:20 12.3 °C 6.8 °C 1028 hPa NNE 3.2 km/h 12.9 km/h 69% 0 mm 4 W/m2
17:30 11.9 °C 6.4 °C 1028 hPa NNW 3.2 km/h 6.4 km/h 69% 0 mm 6 W/m2
17:40 11.5 °C 6 °C 1028 hPa NNW 4.8 km/h 11.3 km/h 69% 0 mm 0 W/m2
17:50 11.2 °C 5.7 °C 1027.7 hPa NNW 3.2 km/h 14.5 km/h 69% 0 mm 0 W/m2
18:00 11 °C 5.7 °C 1027.7 hPa Calm   4.8 km/h 70% 0 mm 0 W/m2
18:10 10.5 °C 5.7 °C 1028 hPa NE 1.6 km/h 8 km/h 72% 0 mm 0 W/m2
18:20 9.9 °C 5.5 °C 1028 hPa SW 1.6 km/h 4.8 km/h 74% 0 mm 0 W/m2
18:30 9.4 °C 5.6 °C 1028.3 hPa South 1.6 km/h 6.4 km/h 77% 0 mm 0 W/m2
18:40 8.9 °C 5.3 °C 1028.3 hPa South 1.6 km/h 3.2 km/h 78% 0 mm 0 W/m2
18:50 8.4 °C 4.9 °C 1028.3 hPa NW 1.6 km/h 4.8 km/h 79% 0 mm 0 W/m2
19:00 8 °C 4.8 °C 1028.3 hPa SW 1.6 km/h 3.2 km/h 80% 0 mm 0 W/m2
19:10 7.7 °C 4.4 °C 1028.3 hPa WSW 1.6 km/h 3.2 km/h 80% 0 mm 0 W/m2
19:20 7.3 °C 4.3 °C 1028.3 hPa WSW 1.6 km/h 3.2 km/h 81% 0 mm 0 W/m2
19:30 6.9 °C 4.2 °C 1028.3 hPa WSW 3.2 km/h 4.8 km/h 83% 0 mm 0 W/m2
19:40 6.5 °C 3.8 °C 1028.7 hPa West 1.6 km/h 4.8 km/h 83% 0 mm 0 W/m2
19:50 6.2 °C 3.7 °C 1028.3 hPa West 1.6 km/h 4.8 km/h 84% 0 mm 0 W/m2
20:00 6 °C 3.5 °C 1028.3 hPa WSW 1.6 km/h 3.2 km/h 84% 0 mm 0 W/m2
20:10 5.7 °C 3.4 °C 1028.3 hPa Calm   3.2 km/h 85% 0 mm 0 W/m2
20:20 5.3 °C 3 °C 1028.3 hPa WSW 3.2 km/h 6.4 km/h 85% 0 mm 0 W/m2
20:30 5 °C 2.8 °C 1028.3 hPa West 4.8 km/h 8 km/h 86% 0 mm 0 W/m2
20:40 4.8 °C 2.7 °C 1028.7 hPa West 3.2 km/h 6.4 km/h 86% 0 mm 0 W/m2
20:50 4.5 °C 2.3 °C 1028.7 hPa West 4.8 km/h 8 km/h 86% 0 mm 0 W/m2
21:00 4.3 °C 2.5 °C 1028.7 hPa West 4.8 km/h 8 km/h 88% 0 mm 0 W/m2
21:10 4.2 °C 2.4 °C 1028.7 hPa West 4.8 km/h 9.7 km/h 88% 0 mm 0 W/m2
21:20 4 °C 2.2 °C 1028.7 hPa West 3.2 km/h 8 km/h 88% 0 mm 0 W/m2
21:30 3.8 °C 2 °C 1028.7 hPa West 8 km/h 9.7 km/h 88% 0 mm 0 W/m2
21:40 3.7 °C 2.1 °C 1028.7 hPa West 3.2 km/h 8 km/h 89% 0 mm 0 W/m2
21:50 3.5 °C 1.7 °C 1028.7 hPa West 3.2 km/h 4.8 km/h 88% 0 mm 0 W/m2
22:00 3.2 °C 1.6 °C 1028.7 hPa West 3.2 km/h 8 km/h 89% 0 mm 0 W/m2
22:10 3.1 °C 1.4 °C 1028.7 hPa Calm   6.4 km/h 89% 0 mm 0 W/m2
22:20 2.9 °C 1.3 °C 1029 hPa West 1.6 km/h 3.2 km/h 89% 0 mm 0 W/m2
22:30 2.8 °C 1.2 °C 1029 hPa Calm   3.2 km/h 89% 0 mm 0 W/m2
22:40 2.7 °C 1.2 °C 1029 hPa Calm   3.2 km/h 90% 0 mm 0 W/m2
22:50 2.6 °C 1.3 °C 1029 hPa Calm   3.2 km/h 91% 0 mm 0 W/m2
23:00 2.5 °C 1.2 °C 1029 hPa Calm   3.2 km/h 91% 0 mm 0 W/m2
23:10 2.4 °C 1.1 °C 1029 hPa SW 1.6 km/h 8 km/h 91% 0 mm 0 W/m2
23:20 2.4 °C 1.4 °C 1029 hPa NW 1.6 km/h 6.4 km/h 93% 0 mm 0 W/m2
23:30 2.4 °C 1.4 °C 1029 hPa ESE 3.2 km/h 6.4 km/h 93% 0 mm 0 W/m2
23:40 2.4 °C 1.4 °C 1029 hPa Calm   6.4 km/h 93% 0 mm 0 W/m2
23:50 2.3 °C 1.4 °C 1029 hPa SSE 3.2 km/h 4.8 km/h 94% 0 mm 0 W/m2
Knjazevac, Serbia
Compliments of Weather Underground - 2 mb